Latest Coastal Weather Observations for Newcastle Nobbys

IDN60701

Issued at 4:51 pm EST Monday 31 August 2015 (issued every 10 minutes, with the page automatically refreshed every 10 minutes)

About coastal observations | Map of coastal stations | Coastal observations for NSW | Marine services | Other Formats
Station Details ID: 061055 Name: NEWCASTLE NOBBYS SIGNAL STATION AWS Lat: -32.92 Lon: 151.80 Height: 33.0 m
Data from the previous 72 hours. | See also: Recent months at Newcastle Nobbys
Date/Time
EST
Temp

°C
Wind Pressure Rain
since 9am
mm
Weather Cloud Vis
km
Sea
Height
m
Swell
Dir
 
Speed
knots
Gust
knots
hPa Trend Height
m
Period
s
Dir
31/04:30pm 15.7 S 8 11 - - 0.0 - - - - - - -
31/04:00pm 15.8 SSE 7 9 - - 0.0 - - - - - - -
31/03:30pm 16.3 S 7 9 - - 0.0 - - - - - - -
31/03:00pm 16.0 S 10 11 - - 0.0 - - - - - - -
31/02:30pm 16.3 SSE 10 11 - - 0.0 - - - - - - -
31/02:00pm 15.6 S 9 11 - - 0.0 - - - - - - -
31/01:30pm 15.7 S 9 11 - - 0.0 - - - - - - -
31/01:00pm 15.5 S 11 13 - - 0.0 - - - - - - -
31/12:30pm 15.9 S 10 11 - - 0.0 - - - - - - -
31/12:00pm 16.0 S 10 13 - - 0.0 - - - - - - -
31/11:30am 16.0 S 10 13 - - 0.0 - - - - - - -
31/11:00am 15.8 S 10 13 - - 0.0 - - - - - - -
31/10:30am 15.7 S 9 12 - - 0.0 - - - - - - -
31/10:00am 15.8 SSW 9 13 - - 0.0 - - - - - - -
31/09:30am 15.2 SW 8 13 - - 0.0 - - - - - - -
31/09:00am 15.2 SW 9 14 - - 0.0 - - - - - - -
31/08:30am 14.9 WSW 7 12 - - 0.0 - - - - - - -
31/08:00am 14.1 WSW 9 11 - - 0.0 - - - - - - -
31/07:30am 13.1 W 10 11 - - 0.0 - - - - - - -
31/07:00am 12.2 W 8 11 - - 0.0 - - - - - - -
31/06:30am 11.5 W 8 11 - - 0.0 - - - - - - -
31/06:00am 11.5 W 9 12 - - 0.0 - - - - - - -
31/05:30am 11.6 W 10 12 - - 0.0 - - - - - - -
31/05:00am 11.7 W 10 13 - - 0.0 - - - - - - -
31/04:30am 11.9 W 10 12 - - 0.0 - - - - - - -
31/04:00am 12.1 W 9 12 - - 0.0 - - - - - - -
31/03:30am 12.2 WSW 10 14 - - 0.0 - - - - - - -
31/03:00am 11.9 W 8 12 - - 0.0 - - - - - - -
31/02:30am 11.7 W 10 12 - - 0.0 - - - - - - -
31/02:00am 12.0 W 9 11 - - 0.0 - - - - - - -
31/01:30am 12.5 W 9 12 - - 0.0 - - - - - - -
31/01:00am 12.7 W 9 12 - - 0.0 - - - - - - -
31/12:30am 13.0 WSW 7 11 - - 0.0 - - - - - - -
31/12:00am 13.3 WSW 4 6 - - 0.0 - - - - - - -
 
Date/Time
EST
Temp

°C
Wind Pressure Rain
since 9am
mm
Weather Cloud Vis
km
Sea
Height
m
Swell
Dir
 
Speed
knots
Gust
knots
hPa Trend Height
m
Period
s
Dir
30/11:30pm 13.6 SW 5 7 - - 0.0 - - - - - - -
30/11:00pm 13.0 WSW 7 9 - - 0.0 - - - - - - -
30/10:30pm 12.6 WSW 7 8 - - 0.0 - - - - - - -
30/10:00pm 12.8 W 8 10 - - 0.0 - - - - - - -
30/09:30pm 13.0 W 8 10 - - 0.0 - - - - - - -
30/09:00pm 13.4 W 9 11 - - 0.0 - - - - - - -
30/08:30pm 14.2 W 7 9 - - 0.0 - - - - - - -
30/08:00pm 15.7 SSW 12 16 - - 0.0 - - - - - - -
30/07:30pm 15.7 SSW 12 16 - - 0.0 - - - - - - -
30/07:00pm 15.7 SSW 12 16 - - 0.0 - - - - - - -
30/06:30pm 15.6 SSW 12 18 - - 0.0 - - - - - - -
30/06:00pm 15.5 SSW 12 17 - - 0.0 - - - - - - -
30/05:30pm 15.5 S 15 18 - - 0.0 - - - - - - -
30/05:00pm 15.6 S 13 17 - - 0.0 - - - - - - -
30/04:30pm 15.6 S 15 19 - - 0.0 - - - - - - -
30/04:00pm 15.8 S 14 17 - - 0.0 - - - - - - -
30/03:30pm 15.8 S 15 19 - - 0.0 - - - - - - -
30/03:00pm 15.8 S 15 17 - - 0.0 - - - - - - -
30/02:30pm 15.8 S 14 16 - - 0.0 - - - - - - -
30/02:00pm 15.7 S 14 16 - - 0.0 - - - - - - -
30/01:30pm 15.6 S 15 17 - - 0.0 - - - - - - -
30/01:00pm 15.5 S 15 17 - - 0.0 - - - - - - -
30/12:30pm 15.5 S 14 16 - - 0.0 - - - - - - -
30/12:00pm 15.8 S 12 14 - - 0.0 - - - - - - -
30/11:30am 15.8 SSW 10 16 - - 0.0 - - - - - - -
30/11:00am 15.9 SSW 7 10 - - 0.0 - - - - - - -
30/10:30am 15.9 SSW 6 11 - - 0.0 - - - - - - -
30/10:00am 16.5 W 7 12 - - 0.0 - - - - - - -
30/09:30am 15.0 WNW 6 9 - - 0.0 - - - - - - -
30/09:00am 13.9 WNW 8 11 - - 0.0 - - - - - - -
30/08:30am 12.3 NW 9 11 - - 0.0 - - - - - - -
30/08:00am 11.2 WNW 8 10 - - 0.0 - - - - - - -
30/07:30am 9.9 WNW 7 9 - - 0.0 - - - - - - -
30/07:00am 8.6 WNW 7 8 - - 0.0 - - - - - - -
30/06:30am 8.2 WNW 6 7 - - 0.0 - - - - - - -
30/06:00am 8.5 WNW 7 9 - - 0.0 - - - - - - -
30/05:30am 8.8 WNW 6 8 - - 0.0 - - - - - - -
30/05:00am 8.8 WNW 6 8 - - 0.0 - - - - - - -
30/04:30am 9.1 WNW 7 9 - - 0.0 - - - - - - -
30/04:00am 9.4 WNW 6 9 - - 0.0 - - - - - - -
30/03:30am 9.6 WNW 5 6 - - 0.0 - - - - - - -
30/03:00am 9.8 WNW 3 5 - - 0.0 - - - - - - -
30/02:30am 10.5 NW 5 6 - - 0.0 - - - - - - -
30/02:00am 11.6 NW 4 6 - - 0.0 - - - - - - -
30/01:30am 11.8 WNW 4 7 - - 0.0 - - - - - - -
30/01:00am 12.3 WNW 5 6 - - 0.0 - - - - - - -
30/12:30am 13.3 WSW 7 11 - - 0.0 - - - - - - -
30/12:00am 13.2 W 9 11 - - 0.0 - - - - - - -
 
Date/Time
EST
Temp

°C
Wind Pressure Rain
since 9am
mm
Weather Cloud Vis
km
Sea
Height
m
Swell
Dir
 
Speed
knots
Gust
knots
hPa Trend Height
m
Period
s
Dir
29/11:30pm 13.6 W 9 13 - - 0.0 - - - - - - -
29/11:00pm 13.4 W 7 9 - - 0.0 - - - - - - -
29/10:30pm 13.4 WNW 6 8 - - 0.0 - - - - - - -
29/10:00pm 13.8 WNW 10 13 - - 0.0 - - - - - - -
29/09:30pm 14.2 WNW 10 14 - - 0.0 - - - - - - -
29/09:00pm 14.4 WNW 11 14 - - 0.0 - - - - - - -
29/08:30pm 14.9 NW 11 16 - - 0.0 - - - - - - -
29/08:00pm 15.2 NW 11 14 - - 0.0 - - - - - - -
29/07:30pm 15.4 NW 13 16 - - 0.0 - - - - - - -
29/07:00pm 15.9 NW 10 13 - - 0.0 - - - - - - -
29/06:30pm 16.9 NW 12 15 - - 0.0 - - - - - - -
29/06:00pm 17.1 NW 8 11 - - 0.0 - - - - - - -
29/05:30pm 17.7 NW 10 14 - - 0.0 - - - - - - -
29/05:00pm 18.4 NW 13 17 - - 0.0 - - - - - - -
29/04:30pm 18.8 NW 13 17 - - 0.0 - - - - - - -
29/04:00pm 19.2 NW 11 17 - - 0.0 - - - - - - -
29/03:30pm 19.8 WNW 12 18 - - 0.0 - - - - - - -
29/03:00pm 19.7 NW 10 16 - - 0.0 - - - - - - -
29/02:30pm 19.2 NW 14 21 - - 0.0 - - - - - - -
29/02:00pm 19.1 NW 16 21 - - 0.0 - - - - - - -
29/01:30pm 19.1 WNW 15 19 - - 0.0 - - - - - - -
29/01:00pm 18.9 WNW 12 18 - - 0.0 - - - - - - -
29/12:30pm 18.4 NW 12 18 - - 0.0 - - - - - - -
29/12:00pm 18.1 WNW 14 17 - - 0.0 - - - - - - -
29/11:30am 17.1 NW 15 22 - - 0.0 - - - - - - -
29/11:00am 17.0 WNW 12 17 - - 0.0 - - - - - - -
29/10:30am 16.5 NW 13 18 - - 0.0 - - - - - - -
29/10:00am 15.2 NW 10 14 - - 0.0 - - - - - - -
29/09:30am 14.6 NW 12 15 - - 0.0 - - - - - - -
29/09:00am 13.4 NW 11 13 - - 0.0 - - - - - - -
29/08:30am 13.2 NW 11 14 - - 0.0 - - - - - - -
29/08:00am 12.3 NW 9 11 - - 0.0 - - - - - - -
29/07:30am 11.2 WNW 8 10 - - 0.0 - - - - - - -
29/07:00am 10.4 WNW 9 12 - - 0.0 - - - - - - -
29/06:30am 9.9 WNW 9 11 - - 0.0 - - - - - - -
29/06:00am 10.1 WNW 9 12 - - 0.0 - - - - - - -
29/05:30am 10.2 WNW 8 11 - - 0.0 - - - - - - -
29/05:00am 10.0 WNW 8 9 - - 0.0 - - - - - - -
29/04:30am 10.3 WNW 7 9 - - 0.0 - - - - - - -
29/04:00am 10.5 WNW 8 9 - - 0.0 - - - - - - -
29/03:30am 10.8 WNW 9 12 - - 0.0 - - - - - - -
29/03:00am 10.9 WNW 8 9 - - 0.0 - - - - - - -
29/02:30am 11.3 WNW 7 9 - - 0.0 - - - - - - -
29/02:00am 11.5 WNW 7 9 - - 0.0 - - - - - - -
29/01:30am 11.8 WNW 10 13 - - 0.0 - - - - - - -
29/01:00am 12.1 WNW 10 13 - - 0.0 - - - - - - -
29/12:30am 12.3 WNW 10 14 - - 0.0 - - - - - - -
29/12:00am 12.6 WNW 12 15 - - 0.0 - - - - - - -
 
Date/Time
EST
Temp

°C
Wind Pressure Rain
since 9am
mm
Weather Cloud Vis
km
Sea
Height
m
Swell
Dir
 
Speed
knots
Gust
knots
hPa Trend Height
m
Period
s
Dir
28/11:30pm 12.8 WNW 10 13 - - 0.0 - - - - - - -
28/11:00pm 12.7 WNW 10 14 - - 0.0 - - - - - - -
28/10:30pm 13.2 WNW 9 11 - - 0.0 - - - - - - -
28/10:00pm 13.7 WNW 8 10 - - 0.0 - - - - - - -
28/09:30pm 13.8 NW 9 12 - - 0.0 - - - - - - -
28/09:00pm 14.6 NW 8 10 - - 0.0 - - - - - - -
28/08:30pm 15.2 WNW 9 12 - - 0.0 - - - - - - -
28/08:00pm 15.8 NW 6 9 - - 0.0 - - - - - - -
28/07:30pm 16.2 WNW 6 9 - - 0.0 - - - - - - -
28/07:00pm 16.5 WNW 3 4 - - 0.0 - - - - - - -
28/06:30pm 16.8 S 4 6 - - 0.0 - - - - - - -
28/06:00pm 17.0 SSW 5 7 - - 0.0 - - - - - - -
28/05:30pm 17.1 S 2 3 - - 0.0 - - - - - - -
28/05:00pm 17.8 SSE 6 8 - - 0.0 - - - - - - -

Other Formats:

Comma delimited format used in spreadsheet applications
http://www.bom.gov.au/fwo/IDN60701/IDN60701.94774.axf

JavaScript Object Notation format (JSON) in row-major order
http://www.bom.gov.au/fwo/IDN60701/IDN60701.94774.json